Time;durP1;ratioP1;P1;durP2;ratioP2;P2;SDS_P1;SDS_P2;PMS_P1;PMS_P2;Temp;Humidity;BMP_temperature;BMP_pressure;BME280_temperature;BME280_humidity;BME280_pressure;Samples;Min_cycle;Max_cycle;Signal;HPM_P1;HPM_P2
2022/07/27 00:00:39;;;;;;;7.70;1.40;;;14.70;1.00;;;;;;5081512;28;20654;-69
2022/07/27 00:03:05;;;;;;;4.40;2.37;;;14.70;1.00;;;;;;5056602;28;20564;-77
2022/07/27 00:05:31;;;;;;;1.73;1.33;;;14.80;1.00;;;;;;5068882;28;20197;-69
2022/07/27 00:07:56;;;;;;;2.10;1.30;;;14.80;1.00;;;;;;5078014;28;20176;-69
2022/07/27 00:10:22;;;;;;;5.43;1.40;;;14.70;1.00;;;;;;5067073;28;20554;-68
2022/07/27 00:12:48;;;;;;;4.17;1.40;;;14.70;1.00;;;;;;5074314;28;20213;-69
2022/07/27 00:15:13;;;;;;;3.37;1.20;;;14.70;1.00;;;;;;5082565;28;20320;-75
2022/07/27 00:17:39;;;;;;;3.17;1.20;;;14.70;1.00;;;;;;5095138;28;20269;-77
2022/07/27 00:20:05;;;;;;;2.50;1.20;;;14.60;1.00;;;;;;5084843;28;20170;-74
2022/07/27 00:22:31;;;;;;;6.50;1.67;;;14.60;1.00;;;;;;5074329;28;20250;-70
2022/07/27 00:24:57;;;;;;;5.23;1.43;;;14.60;1.00;;;;;;5083145;28;20580;-77
2022/07/27 00:27:22;;;;;;;5.00;1.87;;;14.70;1.00;;;;;;5093271;28;20189;-76
2022/07/27 00:29:48;;;;;;;3.47;1.60;;;14.80;1.00;;;;;;5066730;28;20282;-77
2022/07/27 00:32:14;;;;;;;6.03;1.53;;;14.70;1.00;;;;;;5073905;28;20162;-77
2022/07/27 00:34:40;;;;;;;5.60;1.80;;;14.70;1.00;;;;;;5064220;28;20458;-77
2022/07/27 00:37:06;;;;;;;4.17;1.10;;;14.70;1.00;;;;;;5094903;28;20173;-68
2022/07/27 00:39:31;;;;;;;5.43;1.47;;;14.50;1.00;;;;;;5092024;28;20162;-67
2022/07/27 00:41:57;;;;;;;3.50;2.00;;;14.50;1.00;;;;;;5084843;28;20158;-77
2022/07/27 00:44:28;;;;;;;5.10;1.20;;;14.40;1.00;;;;;;5076234;28;20813;-78
2022/07/27 00:46:55;;;;;;;3.83;2.00;;;14.50;1.00;;;;;;5094116;28;20734;-76
2022/07/27 00:49:21;;;;;;;5.07;1.77;;;14.40;1.00;;;;;;5076679;28;20404;-71
2022/07/27 00:51:48;;;;;;;1.70;1.60;;;14.30;1.00;;;;;;5061685;28;20774;-74
2022/07/27 00:54:15;;;;;;;1.87;1.20;;;14.30;1.00;;;;;;5072764;28;20805;-69
2022/07/27 00:56:41;;;;;;;5.23;1.60;;;14.30;1.00;;;;;;5087337;28;20530;-74
2022/07/27 00:59:08;;;;;;;5.03;2.00;;;14.30;1.00;;;;;;5094400;28;20455;-76
2022/07/27 01:01:34;;;;;;;1.80;1.10;;;14.20;1.00;;;;;;5082785;28;20420;-77
2022/07/27 01:04:00;;;;;;;2.00;1.80;;;14.20;1.00;;;;;;5073398;28;20416;-77
2022/07/27 01:06:27;;;;;;;2.03;1.83;;;14.10;1.00;;;;;;5078049;28;20237;-68
2022/07/27 01:09:55;;;;;;;2.30;1.60;;;14.00;1.00;;;;;;5074033;28;20162;-76
2022/07/27 01:11:39;;;;;;;2.03;1.30;;;14.00;1.00;;;;;;5083803;28;20911;-77
2022/07/27 01:14:06;;;;;;;2.47;1.40;;;14.00;1.00;;;;;;5093361;28;20423;-69
2022/07/27 01:16:32;;;;;;;1.87;1.43;;;14.00;1.00;;;;;;5059727;28;20789;-68
2022/07/27 01:18:58;;;;;;;1.90;1.50;;;14.10;1.00;;;;;;5073826;28;20456;-77
2022/07/27 01:21:24;;;;;;;4.10;1.33;;;14.10;1.00;;;;;;5070661;28;20173;-76
2022/07/27 01:23:49;;;;;;;2.73;1.33;;;14.10;1.00;;;;;;5093264;28;20260;-68
2022/07/27 01:26:15;;;;;;;4.77;1.70;;;14.00;1.00;;;;;;5089345;28;20162;-76
2022/07/27 01:28:45;;;;;;;3.80;1.70;;;14.00;1.00;;;;;;5076003;28;20255;-69
2022/07/27 01:31:11;;;;;;;5.70;1.73;;;14.10;1.00;;;;;;5081660;28;20412;-77
2022/07/27 01:33:36;;;;;;;4.67;2.00;;;14.10;1.00;;;;;;5054700;28;20913;-76
2022/07/27 01:36:03;;;;;;;5.63;1.77;;;14.10;1.00;;;;;;5068836;28;20686;-74
2022/07/27 01:38:28;;;;;;;3.17;1.50;;;14.10;1.00;;;;;;5075634;28;20550;-77
2022/07/27 01:40:54;;;;;;;4.03;1.50;;;13.90;1.00;;;;;;5056294;28;20424;-77
2022/07/27 01:43:21;;;;;;;1.40;1.23;;;13.90;1.00;;;;;;5072641;28;20281;-68
2022/07/27 01:45:47;;;;;;;3.40;1.17;;;13.90;1.00;;;;;;5091098;28;20912;-68
2022/07/27 01:48:13;;;;;;;2.93;1.80;;;13.90;1.00;;;;;;5093777;28;20408;-76
2022/07/27 01:50:40;;;;;;;4.07;1.60;;;13.80;1.00;;;;;;5059031;28;20412;-76
2022/07/27 01:53:06;;;;;;;3.93;1.73;;;13.90;1.00;;;;;;5072457;28;20173;-77
2022/07/27 01:55:31;;;;;;;4.40;1.73;;;13.80;1.00;;;;;;5087212;28;20514;-68
2022/07/27 01:57:57;;;;;;;2.30;1.90;;;13.80;1.00;;;;;;5091516;28;20534;-75
2022/07/27 02:00:23;;;;;;;4.13;2.00;;;13.80;1.00;;;;;;5055369;28;20699;-67
2022/07/27 02:02:48;;;;;;;2.27;1.50;;;13.80;1.00;;;;;;5072217;28;20162;-76
2022/07/27 02:05:14;;;;;;;4.03;1.90;;;13.70;1.00;;;;;;5090593;28;20598;-68
2022/07/27 02:07:40;;;;;;;3.00;1.40;;;13.80;1.00;;;;;;5074942;28;20256;-74
2022/07/27 02:10:08;;;;;;;5.13;1.50;;;13.70;1.00;;;;;;5058127;28;20623;-69
2022/07/27 02:12:36;;;;;;;2.50;1.60;;;13.70;1.00;;;;;;5072354;28;20433;-76
2022/07/27 02:15:12;;;;;;;1.80;1.70;;;13.80;1.00;;;;;;5087814;28;20458;-77
2022/07/27 02:17:39;;;;;;;1.90;1.30;;;13.90;1.00;;;;;;5093062;28;20440;-68
2022/07/27 02:20:06;;;;;;;12.10;1.90;;;14.00;1.00;;;;;;5078157;28;20408;-75
2022/07/27 02:22:31;;;;;;;5.43;1.73;;;14.00;1.00;;;;;;5072385;28;20396;-68
2022/07/27 02:24:57;;;;;;;3.80;1.30;;;14.00;1.00;;;;;;5085656;28;20776;-76
2022/07/27 02:27:23;;;;;;;1.50;1.40;;;14.00;1.00;;;;;;5092491;28;20196;-75
2022/07/27 02:29:49;;;;;;;4.00;1.40;;;14.00;1.00;;;;;;5074019;28;20174;-77
2022/07/27 02:32:15;;;;;;;6.20;1.83;;;14.00;1.00;;;;;;5053924;28;21043;-67
2022/07/27 02:34:41;;;;;;;3.80;1.50;;;14.00;1.00;;;;;;5089612;28;20276;-68
2022/07/27 02:37:07;;;;;;;3.50;1.60;;;14.00;1.00;;;;;;5093032;28;20150;-75
2022/07/27 02:39:33;;;;;;;4.57;1.80;;;13.90;1.00;;;;;;5077665;28;20408;-76
2022/07/27 02:41:58;;;;;;;13.33;2.90;;;13.90;1.00;;;;;;5054826;28;20412;-76
2022/07/27 02:44:24;;;;;;;4.00;1.57;;;13.90;1.00;;;;;;5054518;28;20190;-76
2022/07/27 02:46:50;;;;;;;3.90;2.37;;;13.90;1.00;;;;;;5072802;28;20332;-68
2022/07/27 02:49:16;;;;;;;3.03;1.43;;;13.90;1.00;;;;;;5087818;28;20165;-68
2022/07/27 02:51:42;;;;;;;5.60;1.73;;;13.90;1.00;;;;;;5074797;28;20465;-69
2022/07/27 02:54:08;;;;;;;1.93;1.20;;;13.90;1.00;;;;;;5077916;28;20229;-77
2022/07/27 02:56:33;;;;;;;7.60;2.70;;;13.80;1.00;;;;;;5072808;28;20170;-68
2022/07/27 02:58:59;;;;;;;1.70;1.30;;;13.80;1.00;;;;;;5084233;28;20505;-68
2022/07/27 03:01:25;;;;;;;2.13;2.03;;;13.80;1.00;;;;;;5072718;28;20165;-75
2022/07/27 03:03:51;;;;;;;6.10;1.77;;;13.80;1.00;;;;;;5053016;28;20645;-76
2022/07/27 03:06:16;;;;;;;2.60;1.40;;;13.80;1.00;;;;;;5054412;28;20693;-74
2022/07/27 03:08:42;;;;;;;7.13;1.53;;;13.80;1.00;;;;;;5074699;28;20196;-75
2022/07/27 03:11:08;;;;;;;4.60;1.67;;;13.80;1.00;;;;;;5092712;28;20197;-67
2022/07/27 03:13:34;;;;;;;4.73;1.90;;;13.70;1.00;;;;;;5073481;28;20178;-67
2022/07/27 03:16:00;;;;;;;7.63;1.60;;;13.60;1.00;;;;;;5073680;28;20789;-76
2022/07/27 03:18:26;;;;;;;5.10;1.50;;;13.60;1.00;;;;;;5075400;28;20197;-68
2022/07/27 03:20:51;;;;;;;1.67;0.97;;;13.70;1.00;;;;;;5090178;28;20419;-76
2022/07/27 03:23:17;;;;;;;4.10;1.83;;;13.70;1.00;;;;;;5095469;28;20403;-76
2022/07/27 03:25:43;;;;;;;2.63;1.83;;;13.70;1.00;;;;;;5065327;28;20193;-67
2022/07/27 03:28:09;;;;;;;1.57;1.47;;;13.70;1.00;;;;;;5076142;28;20171;-75
2022/07/27 03:30:34;;;;;;;4.50;1.50;;;13.70;1.00;;;;;;5059583;28;20257;-68
2022/07/27 03:33:00;;;;;;;5.10;1.63;;;13.80;1.00;;;;;;5075004;28;20170;-68
2022/07/27 03:35:26;;;;;;;2.27;1.53;;;13.80;1.00;;;;;;5076994;28;20194;-75
2022/07/27 03:37:52;;;;;;;5.27;1.70;;;13.80;1.00;;;;;;5075860;28;20248;-74
2022/07/27 03:40:18;;;;;;;2.83;1.70;;;13.80;1.00;;;;;;5095029;28;20188;-72
2022/07/27 03:42:44;;;;;;;2.60;1.53;;;13.80;1.00;;;;;;5077220;28;20276;-75
2022/07/27 03:45:10;;;;;;;5.53;1.90;;;13.90;1.00;;;;;;5077533;28;20221;-67
2022/07/27 03:47:36;;;;;;;4.30;2.00;;;13.90;1.00;;;;;;5070055;28;20423;-68
2022/07/27 03:50:03;;;;;;;4.87;1.60;;;14.00;1.00;;;;;;5096044;28;20226;-76
2022/07/27 03:52:28;;;;;;;1.87;1.20;;;14.00;1.00;;;;;;5083493;28;20186;-68
2022/07/27 03:54:56;;;;;;;3.03;1.53;;;14.00;1.00;;;;;;5075537;28;20416;-76
2022/07/27 03:57:22;;;;;;;4.60;1.80;;;13.90;1.00;;;;;;5076517;28;20217;-76
2022/07/27 03:59:47;;;;;;;2.23;2.03;;;13.90;1.00;;;;;;5075216;28;20411;-67
2022/07/27 04:02:13;;;;;;;4.13;1.67;;;14.00;1.00;;;;;;5081867;28;20506;-72
2022/07/27 04:04:39;;;;;;;2.50;1.93;;;13.90;1.00;;;;;;5095464;28;20193;-67
2022/07/27 04:07:04;;;;;;;4.00;1.37;;;13.90;1.00;;;;;;5089671;28;20166;-68
2022/07/27 04:09:30;;;;;;;2.10;1.63;;;13.90;1.00;;;;;;5075288;28;20190;-76
2022/07/27 04:11:56;;;;;;;1.97;1.37;;;14.00;1.00;;;;;;5082555;28;20222;-68
2022/07/27 04:14:21;;;;;;;7.60;2.00;;;14.00;1.00;;;;;;5076512;28;20707;-76
2022/07/27 04:16:47;;;;;;;3.97;1.60;;;14.10;1.00;;;;;;5087272;28;20615;-69
2022/07/27 04:19:13;;;;;;;2.70;1.83;;;14.10;1.00;;;;;;5074648;28;20240;-76
2022/07/27 04:21:38;;;;;;;5.03;2.30;;;14.10;1.00;;;;;;5080509;28;20201;-68
2022/07/27 04:24:05;;;;;;;2.57;1.40;;;14.10;1.00;;;;;;5076515;28;20665;-68
2022/07/27 04:26:31;;;;;;;5.33;2.00;;;14.10;1.00;;;;;;5091233;28;20748;-76
2022/07/27 04:28:57;;;;;;;3.20;1.93;;;14.20;1.00;;;;;;5056574;28;20496;-76
2022/07/27 04:31:23;;;;;;;7.70;1.50;;;14.30;1.00;;;;;;5075976;28;20170;-69
2022/07/27 04:33:49;;;;;;;3.87;1.77;;;14.30;1.00;;;;;;5072782;28;20198;-68
2022/07/27 04:36:15;;;;;;;3.53;1.73;;;14.30;1.00;;;;;;5094823;28;20424;-76
2022/07/27 04:38:41;;;;;;;5.93;1.73;;;14.30;1.00;;;;;;5094975;28;21025;-76
2022/07/27 04:41:07;;;;;;;2.97;1.63;;;14.30;1.00;;;;;;5076256;28;20419;-68
2022/07/27 04:43:33;;;;;;;5.40;1.70;;;14.30;1.00;;;;;;5094010;28;20414;-75
2022/07/27 04:46:01;;;;;;;2.90;1.37;;;14.30;1.00;;;;;;5062133;28;20169;-76
2022/07/27 04:48:27;;;;;;;4.40;1.50;;;14.30;1.00;;;;;;5094839;28;20180;-68
2022/07/27 04:50:53;;;;;;;3.13;1.40;;;14.20;1.00;;;;;;5078388;28;20424;-75
2022/07/27 04:53:19;;;;;;;3.10;1.50;;;14.10;1.00;;;;;;5073138;28;20170;-67
2022/07/27 04:55:45;;;;;;;4.10;1.50;;;14.20;1.00;;;;;;5092396;28;20646;-77
2022/07/27 04:58:13;;;;;;;4.90;2.27;;;14.30;1.00;;;;;;5094586;28;20439;-76
2022/07/27 05:00:39;;;;;;;3.77;1.63;;;14.20;1.00;;;;;;5077444;28;20742;-76
2022/07/27 05:03:05;;;;;;;7.80;1.87;;;14.20;1.00;;;;;;5074275;28;20511;-76
2022/07/27 05:05:31;;;;;;;9.50;2.40;;;14.30;1.00;;;;;;5074171;28;20507;-66
2022/07/27 05:07:56;;;;;;;5.70;1.80;;;14.20;1.00;;;;;;5061374;28;20692;-75
2022/07/27 05:10:22;;;;;;;3.27;1.90;;;14.30;1.00;;;;;;5076269;28;20514;-67
2022/07/27 05:12:48;;;;;;;6.60;2.23;;;14.30;1.00;;;;;;5089433;28;20689;-68
2022/07/27 05:15:15;;;;;;;3.97;1.70;;;14.30;1.00;;;;;;5056046;28;20198;-67
2022/07/27 05:17:41;;;;;;;6.60;1.60;;;14.50;1.00;;;;;;5075002;28;20456;-67
2022/07/27 05:20:07;;;;;;;4.93;1.70;;;14.70;1.00;;;;;;5094179;28;20423;-69
2022/07/27 05:22:33;;;;;;;7.10;1.90;;;14.80;1.00;;;;;;5093299;28;20752;-75
2022/07/27 05:24:59;;;;;;;13.30;1.90;;;14.90;1.00;;;;;;5093587;28;20436;-69
2022/07/27 05:27:25;;;;;;;2.70;1.30;;;15.00;1.00;;;;;;5094072;28;20240;-72
2022/07/27 05:29:50;;;;;;;5.33;1.87;;;15.10;1.00;;;;;;5074979;28;20178;-75
2022/07/27 05:32:16;;;;;;;2.37;1.00;;;15.10;1.00;;;;;;5073866;28;20635;-77
2022/07/27 05:34:44;;;;;;;9.77;1.77;;;15.10;1.00;;;;;;5073753;28;20273;-77
2022/07/27 05:37:11;;;;;;;5.00;1.40;;;15.10;1.00;;;;;;5074652;28;20166;-75
2022/07/27 05:39:37;;;;;;;2.40;1.30;;;15.10;1.00;;;;;;5073495;28;20767;-68
2022/07/27 05:42:04;;;;;;;4.80;1.83;;;15.20;1.00;;;;;;5080574;28;20408;-69
2022/07/27 05:44:30;;;;;;;3.00;1.80;;;15.20;1.00;;;;;;5093171;28;20419;-76
2022/07/27 05:46:55;;;;;;;6.70;2.13;;;15.20;1.00;;;;;;5080859;28;20491;-72
2022/07/27 05:49:22;;;;;;;3.63;1.80;;;15.20;1.00;;;;;;5073434;28;20400;-76
2022/07/27 05:51:51;;;;;;;4.83;1.57;;;15.30;1.00;;;;;;5064873;28;20177;-72
2022/07/27 05:54:17;;;;;;;6.30;1.40;;;15.40;1.00;;;;;;5074722;28;20493;-77
2022/07/27 05:56:43;;;;;;;4.50;1.43;;;15.40;1.00;;;;;;5084353;28;20908;-73
2022/07/27 05:59:09;;;;;;;1.30;1.20;;;15.50;1.00;;;;;;5073194;28;20454;-76
2022/07/27 06:01:35;;;;;;;3.77;1.47;;;15.50;1.00;;;;;;5080311;28;20419;-68
2022/07/27 06:04:01;;;;;;;4.03;1.77;;;15.50;1.00;;;;;;5091958;28;20958;-68
2022/07/27 06:09:11;;;;;;;7.97;1.83;;;15.60;1.00;;;;;;5073556;28;20220;-76
2022/07/27 06:11:37;;;;;;;4.50;1.50;;;15.60;1.00;;;;;;5075533;28;21549;-75
2022/07/27 06:14:03;;;;;;;3.00;1.57;;;15.70;1.00;;;;;;5077794;28;20198;-74
2022/07/27 06:16:28;;;;;;;3.87;1.20;;;15.80;1.00;;;;;;5093362;28;20264;-76
2022/07/27 06:18:54;;;;;;;5.17;1.13;;;15.90;1.00;;;;;;5088922;28;20193;-68
2022/07/27 06:21:23;;;;;;;3.53;1.60;;;15.90;1.00;;;;;;5054805;28;20251;-76
2022/07/27 06:23:49;;;;;;;6.40;1.87;;;15.80;1.00;;;;;;5074171;28;20263;-68
2022/07/27 06:26:14;;;;;;;1.50;1.37;;;15.80;1.00;;;;;;5093185;28;20424;-68
2022/07/27 06:28:40;;;;;;;2.20;1.30;;;15.80;1.00;;;;;;5092040;28;20398;-77
2022/07/27 06:31:06;;;;;;;6.43;1.70;;;15.90;1.00;;;;;;5057037;28;20170;-68
2022/07/27 06:33:32;;;;;;;4.53;1.33;;;16.00;1.00;;;;;;5078101;28;20174;-76
2022/07/27 06:35:58;;;;;;;2.20;1.07;;;15.90;1.00;;;;;;5054860;28;20177;-77
2022/07/27 06:38:25;;;;;;;4.67;1.40;;;15.90;1.00;;;;;;5084585;28;20197;-68
2022/07/27 06:40:51;;;;;;;3.40;1.77;;;16.00;1.00;;;;;;5075828;28;20409;-76
2022/07/27 06:43:26;;;;;;;3.67;1.33;;;16.00;1.00;;;;;;5082361;28;20772;-68
2022/07/27 06:45:57;;;;;;;1.53;1.30;;;15.90;1.00;;;;;;5088567;28;20419;-70
2022/07/27 06:48:23;;;;;;;5.00;1.80;;;16.00;1.00;;;;;;5072841;28;20761;-68
2022/07/27 06:50:50;;;;;;;4.73;1.80;;;16.00;1.00;;;;;;5075560;28;20415;-68
2022/07/27 06:53:16;;;;;;;1.67;1.20;;;16.10;1.00;;;;;;5095107;28;20472;-68
2022/07/27 06:55:42;;;;;;;3.63;1.53;;;16.20;1.00;;;;;;5095139;28;20419;-76
2022/07/27 06:58:08;;;;;;;4.73;1.63;;;16.20;1.00;;;;;;5076403;28;20506;-69
2022/07/27 07:00:34;;;;;;;2.53;1.73;;;16.10;1.00;;;;;;5076070;28;20193;-71
2022/07/27 07:03:02;;;;;;;2.30;1.40;;;16.20;1.00;;;;;;5076657;28;20412;-71
2022/07/27 07:05:29;;;;;;;4.40;1.50;;;16.30;1.00;;;;;;5076586;28;20421;-76
2022/07/27 07:07:55;;;;;;;11.77;1.50;;;16.40;1.00;;;;;;5094866;28;20430;-76
2022/07/27 07:10:22;;;;;;;1.60;1.23;;;16.50;1.00;;;;;;5096736;28;20395;-75
2022/07/27 07:12:47;;;;;;;4.40;1.90;;;16.50;1.00;;;;;;5060138;28;20435;-75
2022/07/27 07:15:13;;;;;;;3.13;2.60;;;16.50;1.00;;;;;;5076512;28;20421;-71
2022/07/27 07:17:39;;;;;;;5.47;1.53;;;16.50;1.00;;;;;;5095845;28;20254;-72
2022/07/27 07:20:06;;;;;;;3.20;1.60;;;16.60;1.00;;;;;;5096211;28;20162;-76
2022/07/27 07:22:33;;;;;;;5.40;1.90;;;16.60;1.00;;;;;;5076140;28;20909;-76
2022/07/27 07:25:00;;;;;;;2.83;1.27;;;16.60;1.00;;;;;;5076086;28;20777;-76
2022/07/27 07:27:26;;;;;;;3.77;1.60;;;16.80;1.00;;;;;;5093250;28;20413;-69
2022/07/27 07:29:53;;;;;;;5.70;1.63;;;16.80;1.00;;;;;;5096486;28;20392;-69
2022/07/27 07:32:23;;;;;;;3.90;1.20;;;16.80;1.00;;;;;;5093549;28;20438;-76
2022/07/27 07:34:50;;;;;;;5.47;1.30;;;16.70;1.00;;;;;;5096081;28;20419;-76
2022/07/27 07:37:16;;;;;;;2.63;1.53;;;16.60;1.00;;;;;;5096034;28;20434;-73
2022/07/27 07:39:42;;;;;;;3.20;1.57;;;16.50;1.00;;;;;;5095847;28;20399;-66
2022/07/27 07:42:08;;;;;;;4.80;1.47;;;16.50;1.00;;;;;;5095812;28;20756;-72
2022/07/27 07:44:33;;;;;;;4.73;1.47;;;16.60;1.00;;;;;;5095764;28;20185;-76
2022/07/27 07:47:00;;;;;;;4.30;1.60;;;16.60;1.00;;;;;;5096001;28;20179;-77
2022/07/27 07:49:25;;;;;;;3.93;1.40;;;16.70;1.00;;;;;;5095898;28;20174;-69
2022/07/27 07:51:51;;;;;;;1.53;1.30;;;16.90;1.00;;;;;;5095962;28;20782;-67
2022/07/27 07:54:17;;;;;;;5.47;1.10;;;17.10;1.00;;;;;;5095046;28;20200;-69
2022/07/27 07:56:43;;;;;;;1.50;1.20;;;17.10;1.00;;;;;;5095241;28;20231;-75
2022/07/27 07:59:10;;;;;;;2.03;0.90;;;17.20;1.00;;;;;;5095937;28;20486;-69
2022/07/27 08:01:36;;;;;;;3.47;1.37;;;17.30;1.00;;;;;;5095770;28;20403;-67
2022/07/27 08:04:01;;;;;;;2.33;1.00;;;17.30;1.00;;;;;;5093920;28;20412;-67
2022/07/27 08:06:27;;;;;;;4.43;1.40;;;17.40;1.00;;;;;;5095611;28;20189;-67
2022/07/27 08:08:53;;;;;;;2.50;1.17;;;17.50;1.00;;;;;;5095530;28;20649;-76
2022/07/27 08:11:19;;;;;;;2.40;1.20;;;17.60;1.00;;;;;;5095609;28;20181;-76
2022/07/27 08:13:45;;;;;;;4.70;1.43;;;17.60;1.00;;;;;;5094436;28;20185;-75
2022/07/27 08:16:10;;;;;;;3.13;1.20;;;17.50;1.00;;;;;;5095182;28;20166;-67
2022/07/27 08:18:36;;;;;;;3.43;1.73;;;17.40;1.00;;;;;;5095098;28;20608;-68
2022/07/27 08:21:02;;;;;;;1.60;1.10;;;17.20;1.00;;;;;;5095388;28;20166;-67
2022/07/27 08:23:30;;;;;;;2.00;1.30;;;17.10;1.00;;;;;;5094757;28;20158;-76
2022/07/27 08:25:56;;;;;;;4.87;1.40;;;17.10;1.00;;;;;;5095390;28;20400;-69
2022/07/27 08:28:22;;;;;;;2.70;1.00;;;17.30;1.00;;;;;;5095293;28;20509;-76
2022/07/27 08:30:48;;;;;;;1.67;1.07;;;17.50;1.00;;;;;;5095188;28;20461;-76
2022/07/27 08:33:14;;;;;;;5.37;1.10;;;17.50;1.00;;;;;;5093969;28;20173;-69
2022/07/27 08:35:40;;;;;;;10.67;1.53;;;17.70;1.00;;;;;;5095094;28;20419;-69
2022/07/27 08:38:08;;;;;;;2.63;1.23;;;17.80;1.00;;;;;;5094998;28;20851;-69
2022/07/27 08:40:35;;;;;;;1.00;0.80;;;17.80;1.00;;;;;;5095078;28;20396;-76
2022/07/27 08:43:04;;;;;;;8.50;1.23;;;17.80;1.00;;;;;;5094212;28;20400;-76
2022/07/27 08:45:31;;;;;;;2.30;1.30;;;17.80;1.00;;;;;;5094897;28;20415;-76
2022/07/27 08:47:57;;;;;;;1.70;1.13;;;17.80;1.00;;;;;;5091824;28;20432;-76
2022/07/27 08:50:24;;;;;;;1.20;1.10;;;17.90;1.00;;;;;;5094877;28;20408;-77
2022/07/27 08:53:03;;;;;;;4.20;1.10;;;18.00;1.00;;;;;;5075156;28;20779;-69
2022/07/27 08:55:31;;;;;;;2.43;0.90;;;18.00;1.00;;;;;;5094560;28;20822;-77
2022/07/27 08:57:58;;;;;;;1.90;0.90;;;18.10;1.00;;;;;;5094537;28;20447;-75
2022/07/27 09:00:26;;;;;;;4.03;1.40;;;18.20;1.00;;;;;;5094702;28;20487;-68
2022/07/27 09:02:57;;;;;;;1.90;1.37;;;18.30;1.00;;;;;;5093710;28;20391;-70
2022/07/27 09:05:23;;;;;;;2.83;1.17;;;18.40;1.00;;;;;;5094571;28;20500;-74
2022/07/27 09:07:49;;;;;;;3.43;1.50;;;18.50;1.00;;;;;;5094283;28;20446;-75
2022/07/27 09:10:32;;;;;;;2.90;1.03;;;18.50;1.00;;;;;;5076001;28;20412;-69
2022/07/27 09:13:14;;;;;;;1.60;1.03;;;18.40;1.00;;;;;;5093715;28;20177;-77
2022/07/27 09:15:45;;;;;;;1.97;1.70;;;18.20;1.00;;;;;;5094050;28;20436;-77
2022/07/27 09:18:47;;;;;;;1.70;1.40;;;18.30;1.00;;;;;;5094215;28;20458;-69
2022/07/27 09:21:18;;;;;;;2.83;0.90;;;18.50;1.00;;;;;;5076312;28;20419;-75
2022/07/27 09:23:53;;;;;;;4.10;1.23;;;18.80;1.00;;;;;;5093363;28;20451;-69
2022/07/27 09:26:28;;;;;;;8.43;1.23;;;18.80;1.00;;;;;;5093491;28;20418;-67
2022/07/27 09:28:58;;;;;;;2.70;1.27;;;19.00;1.00;;;;;;5094061;28;20760;-76
2022/07/27 09:31:24;;;;;;;2.80;1.10;;;19.30;1.00;;;;;;5093837;28;20470;-76
2022/07/27 09:33:52;;;;;;;2.90;0.93;;;19.80;1.00;;;;;;5093296;28;20427;-69
2022/07/27 09:36:22;;;;;;;2.20;1.10;;;20.10;1.00;;;;;;5094041;28;20407;-77
2022/07/27 09:38:54;;;;;;;1.50;0.97;;;20.10;1.00;;;;;;5093886;28;20509;-69
2022/07/27 09:41:22;;;;;;;4.33;1.20;;;19.90;1.00;;;;;;5093901;28;20412;-69
2022/07/27 09:43:53;;;;;;;10.57;1.43;;;20.00;1.00;;;;;;5092304;28;20427;-68
2022/07/27 09:46:29;;;;;;;2.43;1.00;;;20.30;1.00;;;;;;5093856;28;20403;-70
2022/07/27 09:48:55;;;;;;;6.40;1.50;;;20.10;1.00;;;;;;5093784;28;20407;-75
2022/07/27 09:51:24;;;;;;;1.90;0.90;;;19.90;1.00;;;;;;5093576;28;20411;-67
2022/07/27 09:53:54;;;;;;;4.33;1.30;;;19.70;1.00;;;;;;5092916;28;20427;-76
2022/07/27 09:56:28;;;;;;;2.10;0.97;;;19.80;1.00;;;;;;5093720;28;20411;-76
2022/07/27 09:58:59;;;;;;;1.67;1.27;;;20.10;1.00;;;;;;5075411;28;20455;-75
2022/07/27 10:01:31;;;;;;;3.30;1.40;;;20.20;1.00;;;;;;5093514;28;20404;-74
2022/07/27 10:03:59;;;;;;;3.27;1.10;;;19.70;1.00;;;;;;5092194;28;20930;-75
2022/07/27 10:06:26;;;;;;;4.27;0.97;;;19.50;1.00;;;;;;5093540;28;20457;-75
2022/07/27 10:08:56;;;;;;;3.53;1.07;;;19.50;1.00;;;;;;5093599;28;20486;-75
2022/07/27 10:11:23;;;;;;;3.13;0.90;;;19.60;1.00;;;;;;5093349;28;20498;-75
2022/07/27 10:13:50;;;;;;;3.00;1.00;;;19.90;1.00;;;;;;5092534;28;20469;-68
2022/07/27 10:16:19;;;;;;;3.93;1.17;;;20.10;1.00;;;;;;5093251;28;20442;-77
2022/07/27 10:19:07;;;;;;;3.63;1.10;;;20.50;1.00;;;;;;5092940;28;20470;-68
2022/07/27 10:21:36;;;;;;;2.90;1.00;;;21.00;1.00;;;;;;5093083;28;20411;-76
2022/07/27 10:24:07;;;;;;;3.23;1.30;;;20.70;1.00;;;;;;5091857;28;20455;-67
2022/07/27 10:26:36;;;;;;;1.80;0.70;;;20.20;1.00;;;;;;5092678;28;20435;-76
2022/07/27 10:29:05;;;;;;;2.03;0.90;;;19.70;1.00;;;;;;5093278;28;20403;-71
2022/07/27 10:31:33;;;;;;;3.30;1.30;;;20.00;1.00;;;;;;5093144;28;20403;-74
2022/07/27 10:34:38;;;;;;;2.10;0.97;;;20.10;1.00;;;;;;5092297;28;20423;-69
2022/07/27 10:37:13;;;;;;;2.90;0.90;;;19.90;1.00;;;;;;5088245;28;20524;-75
2022/07/27 10:42:39;;;;;;;2.33;1.10;;;20.40;1.00;;;;;;5091870;28;20404;-68
2022/07/27 10:45:13;;;;;;;5.10;0.90;;;20.90;1.00;;;;;;5092792;28;20431;-75
2022/07/27 10:47:51;;;;;;;3.27;1.00;;;20.90;1.00;;;;;;5093039;28;20404;-67
2022/07/27 10:50:18;;;;;;;5.90;2.27;;;20.60;1.00;;;;;;5074979;28;20411;-76
2022/07/27 10:53:01;;;;;;;3.47;1.90;;;20.30;1.00;;;;;;5074227;28;20434;-76
2022/07/27 10:55:30;;;;;;;2.33;0.93;;;19.80;1.00;;;;;;5092927;28;20423;-67
2022/07/27 10:57:57;;;;;;;3.17;1.23;;;20.00;1.00;;;;;;5092492;28;20508;-76
2022/07/27 11:00:48;;;;;;;1.53;1.00;;;20.20;1.00;;;;;;5074650;28;20407;-71
2022/07/27 11:03:32;;;;;;;1.70;1.23;;;20.10;1.00;;;;;;5092103;28;20759;-68
2022/07/27 11:06:08;;;;;;;2.63;1.53;;;19.70;1.00;;;;;;5092712;28;20415;-69
2022/07/27 11:08:40;;;;;;;7.43;1.50;;;19.60;1.00;;;;;;5092823;28;20402;-68
2022/07/27 11:11:08;;;;;;;5.00;1.07;;;19.60;1.00;;;;;;5092843;28;20545;-71
2022/07/27 11:13:34;;;;;;;3.10;1.70;;;19.80;1.00;;;;;;5091891;28;20404;-76
2022/07/27 11:16:06;;;;;;;3.80;1.00;;;19.90;1.00;;;;;;5092396;28;20544;-75
2022/07/27 11:18:39;;;;;;;2.03;1.17;;;19.80;1.00;;;;;;5092242;28;20458;-68
2022/07/27 11:21:24;;;;;;;1.40;0.93;;;19.60;1.00;;;;;;5092684;28;20407;-73
2022/07/27 11:24:02;;;;;;;2.77;1.00;;;20.30;1.00;;;;;;5073777;28;20796;-76
2022/07/27 11:26:38;;;;;;;2.77;1.10;;;21.30;1.00;;;;;;5092403;28;20411;-69
2022/07/27 11:29:07;;;;;;;3.23;1.03;;;21.70;99.90;;;;;;5092616;28;20763;-73
2022/07/27 11:31:35;;;;;;;2.80;1.20;;;21.60;99.90;;;;;;5092810;28;20402;-77
2022/07/27 11:34:00;;;;;;;2.40;1.50;;;21.20;1.00;;;;;;5091013;28;20419;-75
2022/07/27 11:37:11;;;;;;;2.87;1.60;;;21.30;99.90;;;;;;5092048;28;20490;-73
2022/07/27 11:39:37;;;;;;;5.07;1.70;;;21.50;1.00;;;;;;5013657;28;20200;-74
2022/07/27 11:42:03;;;;;;;3.77;1.20;;;21.90;99.90;;;;;;5013911;28;20407;-76
2022/07/27 11:44:35;;;;;;;3.20;1.00;;;22.70;99.90;;;;;;5055234;28;20251;-72
2022/07/27 11:47:01;;;;;;;9.90;2.30;;;22.50;99.90;;;;;;5096128;28;20403;-76
2022/07/27 11:49:30;;;;;;;2.60;1.30;;;21.60;99.90;;;;;;5096112;28;20410;-76
2022/07/27 11:52:05;;;;;;;1.83;0.87;;;20.80;99.90;;;;;;5095421;28;20645;-77
2022/07/27 11:54:36;;;;;;;2.70;1.33;;;20.50;99.90;;;;;;5095326;28;20418;-76
2022/07/27 11:57:04;;;;;;;1.47;0.83;;;20.60;99.90;;;;;;5095928;28;20406;-73
2022/07/27 11:59:30;;;;;;;3.27;1.83;;;21.40;99.90;;;;;;5095872;28;20835;-70
2022/07/27 12:01:58;;;;;;;2.10;1.13;;;21.70;99.90;;;;;;5077936;28;20412;-68
2022/07/27 12:04:26;;;;;;;8.73;1.77;;;21.30;99.90;;;;;;5095067;28;20454;-69
2022/07/27 12:07:15;;;;;;;2.13;0.83;;;21.30;99.90;;;;;;5095787;28;20395;-75
2022/07/27 12:09:48;;;;;;;3.13;1.20;;;21.30;99.90;;;;;;5095627;28;20540;-68
2022/07/27 12:12:18;;;;;;;6.03;2.00;;;21.20;99.90;;;;;;5076387;28;20423;-69
2022/07/27 12:14:49;;;;;;;2.17;1.57;;;20.80;99.90;;;;;;5095310;28;20434;-76
2022/07/27 12:17:36;;;;;;;2.80;1.10;;;20.50;99.90;;;;;;5077106;28;20465;-68
2022/07/27 12:20:08;;;;;;;1.30;0.80;;;20.50;99.90;;;;;;5077337;28;20454;-69
2022/07/27 12:22:38;;;;;;;2.10;0.90;;;20.50;99.90;;;;;;5076303;28;20398;-69
2022/07/27 12:25:24;;;;;;;2.63;1.27;;;20.60;99.90;;;;;;5077294;28;20449;-76
2022/07/27 12:28:13;;;;;;;6.70;1.10;;;20.80;99.90;;;;;;5095066;28;20438;-67
2022/07/27 12:30:43;;;;;;;6.83;1.63;;;20.80;99.90;;;;;;5094948;28;20942;-77
2022/07/27 12:33:26;;;;;;;1.97;1.00;;;20.40;99.90;;;;;;5094479;28;20392;-77
2022/07/27 12:38:53;;;;;;;3.40;1.37;;;20.50;99.90;;;;;;4993186;28;20464;-69
2022/07/27 12:41:26;;;;;;;1.57;0.97;;;20.90;99.90;;;;;;4993473;28;20411;-71
2022/07/27 12:44:14;;;;;;;1.97;0.90;;;20.90;99.90;;;;;;5054562;28;20465;-68
2022/07/27 12:46:53;;;;;;;3.13;1.00;;;21.00;99.90;;;;;;5094919;28;20396;-76
2022/07/27 12:49:33;;;;;;;1.60;1.10;;;21.20;99.90;;;;;;5094223;28;20879;-76
2022/07/27 12:52:11;;;;;;;2.43;1.13;;;21.10;99.90;;;;;;5094695;28;20404;-69
2022/07/27 12:54:37;;;;;;;2.30;1.10;;;20.90;99.90;;;;;;5077087;28;20431;-72
2022/07/27 12:57:03;;;;;;;1.23;0.90;;;20.60;99.90;;;;;;5094474;28;20488;-69
2022/07/27 12:59:29;;;;;;;7.80;1.43;;;20.00;99.90;;;;;;5093316;28;20505;-77
2022/07/27 13:01:56;;;;;;;2.73;1.10;;;19.70;99.90;;;;;;5093045;28;20937;-70
2022/07/27 13:04:22;;;;;;;4.27;1.20;;;19.70;99.90;;;;;;5093790;28;20186;-76
2022/07/27 13:06:48;;;;;;;1.60;1.33;;;19.60;99.90;;;;;;5093506;28;20483;-70
2022/07/27 13:09:13;;;;;;;4.03;1.43;;;20.00;99.90;;;;;;5093154;28;20419;-69